Time;durP1;ratioP1;P1;durP2;ratioP2;P2;SDS_P1;SDS_P2;PMS_P1;PMS_P2;Temp;Humidity;BMP_temperature;BMP_pressure;BME280_temperature;BME280_humidity;BME280_pressure;Samples;Min_cycle;Max_cycle;Signal;HPM_P1;HPM_P2
2022/08/11 00:01:24;;;;;;;5.18;4.72;;;;;;;20.52;58.33;95058.19;5003669;28;20218;-69
2022/08/11 00:03:57;;;;;;;5.97;5.05;;;;;;;20.44;58.63;95066.47;4994232;28;21127;-70
2022/08/11 00:06:32;;;;;;;4.93;4.55;;;;;;;20.38;58.90;95064.63;4985483;28;20421;-70
2022/08/11 00:08:59;;;;;;;5.65;5.15;;;;;;;20.36;59.19;95061.34;4983251;28;20219;-70
2022/08/11 00:11:55;;;;;;;5.63;5.22;;;;;;;20.31;59.34;95067.31;4990481;28;20219;-70
2022/08/11 00:14:25;;;;;;;5.18;4.70;;;;;;;20.26;59.56;95061.78;4979194;28;20219;-70
2022/08/11 00:17:00;;;;;;;5.25;4.75;;;;;;;20.24;59.62;95058.53;4990712;28;20212;-70
2022/08/11 00:19:28;;;;;;;5.25;4.85;;;;;;;20.30;59.69;95059.53;5005551;28;20268;-70
2022/08/11 00:21:55;;;;;;;5.30;4.72;;;;;;;20.25;59.59;95060.16;5020489;28;20319;-68
2022/08/11 00:24:22;;;;;;;4.95;4.55;;;;;;;20.23;59.72;95063.06;5022708;28;20229;-70
2022/08/11 00:26:52;;;;;;;5.82;5.22;;;;;;;20.22;59.88;95064.06;4997198;28;20253;-69
2022/08/11 00:29:19;;;;;;;5.72;4.70;;;;;;;20.18;60.08;95062.88;4990706;28;20214;-69
2022/08/11 00:31:49;;;;;;;5.72;5.22;;;;;;;20.27;59.64;95050.91;5023037;28;20226;-69
2022/08/11 00:34:18;;;;;;;7.97;5.38;;;;;;;20.22;59.79;95061.41;5024143;28;20226;-70
2022/08/11 00:36:43;;;;;;;5.25;4.72;;;;;;;20.22;59.78;95050.72;5025007;28;20246;-70
2022/08/11 00:39:09;;;;;;;5.90;5.38;;;;;;;20.22;59.65;95049.91;5009632;28;20225;-70
2022/08/11 00:41:44;;;;;;;5.70;5.30;;;;;;;20.30;59.68;95048.84;5006641;28;20237;-70
2022/08/11 00:44:31;;;;;;;5.57;5.07;;;;;;;20.24;59.79;95046.00;5007661;28;20217;-70
2022/08/11 00:47:24;;;;;;;5.72;5.20;;;;;;;20.23;59.96;95056.88;5006019;28;20211;-70
2022/08/11 00:50:07;;;;;;;5.93;5.43;;;;;;;20.19;60.08;95050.34;5023332;28;20237;-70
2022/08/11 00:52:54;;;;;;;5.43;5.03;;;;;;;20.15;60.23;95055.25;4981514;28;20220;-70
2022/08/11 00:55:57;;;;;;;5.22;4.82;;;;;;;20.18;60.15;95054.00;4988316;28;20227;-69
2022/08/11 00:58:55;;;;;;;5.57;5.07;;;;;;;20.09;60.18;95053.44;4985793;28;20245;-70
2022/08/11 01:02:01;;;;;;;5.47;4.93;;;;;;;20.08;60.48;95051.00;4986906;28;20250;-70
2022/08/11 01:05:00;;;;;;;5.75;5.28;;;;;;;20.02;60.57;95052.63;4946850;28;20302;-69
2022/08/11 01:08:09;;;;;;;5.45;4.95;;;;;;;19.98;60.92;95046.88;4970760;28;20227;-70
2022/08/11 01:10:43;;;;;;;5.45;5.07;;;;;;;20.02;60.82;95052.63;4973562;28;20250;-69
2022/08/11 01:13:21;;;;;;;5.70;5.25;;;;;;;20.05;60.63;95050.38;4974844;28;20278;-70
2022/08/11 01:15:58;;;;;;;5.45;5.05;;;;;;;20.09;60.45;95044.59;4973412;28;20257;-70
2022/08/11 01:18:55;;;;;;;6.00;5.50;;;;;;;19.95;61.04;95043.81;4989314;28;20219;-69
2022/08/11 01:21:39;;;;;;;6.43;5.50;;;;;;;19.92;61.19;95038.91;4875892;29;20231;-69
2022/08/11 01:24:42;;;;;;;5.18;4.88;;;;;;;19.90;61.36;95039.13;4878368;29;20252;-70
2022/08/11 01:27:22;;;;;;;5.65;5.25;;;;;;;19.96;61.03;95042.78;4902036;29;20324;-70
2022/08/11 01:30:15;;;;;;;5.15;4.75;;;;;;;19.91;61.27;95038.06;4877195;29;20256;-70
2022/08/11 01:33:31;;;;;;;5.35;4.93;;;;;;;19.90;61.40;95040.97;4896158;29;20378;-69
2022/08/11 01:36:15;;;;;;;5.80;5.25;;;;;;;19.78;61.82;95036.28;4821316;29;20278;-70
2022/08/11 01:39:05;;;;;;;6.03;5.53;;;;;;;19.82;61.76;95042.81;4819567;29;20313;-68
2022/08/11 01:44:58;;;;;;;5.43;5.03;;;;;;;19.80;61.77;95031.53;4841709;29;20292;-70
2022/08/11 01:47:59;;;;;;;6.78;5.30;;;;;;;19.77;61.88;95039.94;4839992;29;20288;-69
2022/08/11 01:51:02;;;;;;;5.82;5.32;;;;;;;19.79;61.84;95029.09;4825615;29;20208;-69
2022/08/11 01:53:42;;;;;;;5.85;5.35;;;;;;;19.86;61.65;95035.25;4820711;29;20316;-70
2022/08/11 01:56:18;;;;;;;6.05;5.45;;;;;;;19.89;61.55;95029.47;4821333;29;20232;-70
2022/08/11 01:58:47;;;;;;;6.22;5.72;;;;;;;19.89;61.69;95031.31;4904490;29;20243;-70
2022/08/11 02:01:49;;;;;;;5.47;5.07;;;;;;;19.86;61.71;95032.56;4934420;29;20228;-70
2022/08/11 02:05:02;;;;;;;5.68;5.20;;;;;;;19.90;61.67;95035.63;4930285;29;20232;-71
2022/08/11 02:07:30;;;;;;;5.88;5.40;;;;;;;19.83;61.74;95028.47;4916139;29;20267;-70
2022/08/11 02:13:27;;;;;;;6.30;5.80;;;;;;;19.65;62.18;95030.13;4962747;28;20290;-70
2022/08/11 02:16:09;;;;;;;6.05;5.65;;;;;;;19.61;62.70;95024.34;4958754;28;20234;-70
2022/08/11 02:24:30;;;;;;;6.40;5.82;;;;;;;19.57;62.74;95034.63;4968577;28;20234;-70
2022/08/11 02:27:05;;;;;;;5.95;5.38;;;;;;;19.59;62.79;95029.06;4953232;28;20227;-70
2022/08/11 02:29:45;;;;;;;5.65;5.25;;;;;;;19.49;63.24;95026.03;4944492;28;20234;-69
2022/08/11 02:35:41;;;;;;;5.60;5.20;;;;;;;19.44;63.35;95028.50;4963590;28;20275;-70
2022/08/11 02:38:32;;;;;;;5.95;5.45;;;;;;;19.39;63.55;95035.25;4950660;28;20236;-71
2022/08/11 02:44:36;;;;;;;6.63;6.13;;;;;;;19.16;64.46;95033.00;4946753;29;20248;-69
2022/08/11 02:47:27;;;;;;;6.18;5.68;;;;;;;19.27;64.05;95031.59;4940534;29;20208;-70
2022/08/11 02:50:08;;;;;;;6.50;6.00;;;;;;;19.34;63.69;95029.72;4944850;29;20252;-69
2022/08/11 02:52:39;;;;;;;6.32;5.82;;;;;;;19.38;63.63;95030.97;4948095;29;20411;-69
2022/08/11 02:55:21;;;;;;;6.47;5.97;;;;;;;19.45;63.28;95032.78;4931720;28;20265;-71
2022/08/11 02:58:10;;;;;;;6.00;5.60;;;;;;;19.31;63.72;95038.13;4921262;29;20229;-70
2022/08/11 03:00:50;;;;;;;6.25;5.75;;;;;;;19.32;63.83;95031.75;4928225;29;20237;-69
2022/08/11 03:03:28;;;;;;;6.07;5.68;;;;;;;19.37;63.63;95031.16;4905892;29;20229;-70
2022/08/11 03:06:09;;;;;;;7.03;6.35;;;;;;;19.10;64.51;95033.81;4911708;29;20336;-69
2022/08/11 03:08:51;;;;;;;6.63;6.00;;;;;;;19.19;64.29;95029.09;4915375;29;20225;-70
2022/08/11 03:17:19;;;;;;;7.22;6.20;;;;;;;19.10;64.68;95044.47;4984401;28;20231;-70
2022/08/11 03:20:08;;;;;;;6.50;6.00;;;;;;;19.24;64.16;95033.81;4989705;28;20231;-71
2022/08/11 03:22:49;;;;;;;6.90;6.13;;;;;;;19.23;63.86;95040.19;5000868;28;20223;-69
2022/08/11 03:25:30;;;;;;;7.80;6.03;;;;;;;19.21;63.93;95039.56;4980463;28;20227;-70
2022/08/11 03:28:17;;;;;;;5.95;5.55;;;;;;;19.14;64.46;95035.06;4995384;28;20263;-68
2022/08/11 03:30:51;;;;;;;7.40;6.45;;;;;;;19.17;64.44;95034.63;4990090;28;20396;-70
2022/08/11 03:36:45;;;;;;;7.30;6.75;;;;;;;19.24;63.81;95031.97;4989700;28;20225;-70
2022/08/11 03:39:36;;;;;;;6.88;6.28;;;;;;;19.20;63.96;95043.25;4989561;28;20266;-70
2022/08/11 03:42:17;;;;;;;6.65;6.13;;;;;;;19.20;63.97;95037.94;4990381;28;20223;-70
2022/08/11 03:45:02;;;;;;;6.70;6.10;;;;;;;19.21;64.12;95045.69;4985612;28;20275;-70
2022/08/11 03:47:36;;;;;;;7.20;6.60;;;;;;;19.18;64.25;95041.59;4987864;28;20273;-69
2022/08/11 03:50:30;;;;;;;6.88;6.18;;;;;;;19.09;64.70;95042.03;4990309;28;20293;-69
2022/08/11 03:53:11;;;;;;;6.40;5.95;;;;;;;19.13;64.48;95044.06;5003696;28;20216;-69
2022/08/11 03:55:55;;;;;;;7.40;6.80;;;;;;;19.15;64.30;95042.00;5004186;28;20274;-70
2022/08/11 03:58:58;;;;;;;6.95;6.30;;;;;;;19.01;65.05;95050.22;4994114;28;20254;-69
2022/08/11 04:01:54;;;;;;;6.55;6.00;;;;;;;19.06;64.87;95042.41;4994484;28;20233;-70
2022/08/11 04:04:53;;;;;;;8.30;6.85;;;;;;;19.06;64.76;95047.72;4995134;28;20230;-70
2022/08/11 04:07:46;;;;;;;7.38;6.75;;;;;;;18.95;64.99;95046.50;4990911;28;20255;-70
2022/08/11 04:10:21;;;;;;;8.23;7.43;;;;;;;18.79;66.00;95049.53;4988177;28;20254;-70
2022/08/11 04:12:59;;;;;;;6.80;6.30;;;;;;;18.80;66.18;95052.03;4989981;28;20242;-68
2022/08/11 04:19:09;;;;;;;6.60;6.00;;;;;;;19.23;64.07;95059.66;4992732;28;20281;-70
2022/08/11 04:22:02;;;;;;;7.50;6.80;;;;;;;19.25;63.92;95054.94;4975488;28;20227;-70
2022/08/11 04:24:58;;;;;;;8.18;7.55;;;;;;;19.39;63.42;95048.59;4987658;28;20239;-70
2022/08/11 04:27:53;;;;;;;7.60;6.97;;;;;;;19.29;63.81;95056.16;4984708;28;20310;-69
2022/08/11 04:30:40;;;;;;;7.95;7.25;;;;;;;19.18;64.04;95057.59;4969194;28;20242;-69
2022/08/11 04:33:33;;;;;;;7.30;6.60;;;;;;;19.16;64.48;95049.00;4973744;28;20227;-70
2022/08/11 04:39:42;;;;;;;7.63;6.95;;;;;;;19.45;63.38;95057.59;4993617;28;20311;-70
2022/08/11 04:45:24;;;;;;;7.63;6.82;;;;;;;19.64;62.52;95060.47;4993815;28;20285;-70
2022/08/11 05:03:22;;;;;;;7.72;6.93;;;;;;;19.91;61.77;95061.28;4979065;28;20308;-64
2022/08/11 05:05:56;;;;;;;7.57;6.88;;;;;;;20.02;61.21;95057.97;4979203;28;20231;-63
2022/08/11 05:08:53;;;;;;;7.07;6.47;;;;;;;20.08;60.91;95057.13;4988937;28;20253;-63
2022/08/11 05:11:55;;;;;;;7.60;6.95;;;;;;;20.18;60.66;95056.69;4980604;28;20227;-63
2022/08/11 05:35:49;;;;;;;7.95;6.97;;;;;;;20.57;59.11;95050.41;4834174;29;20243;-63
2022/08/11 05:58:01;;;;;;;8.27;6.90;;;;;;;20.84;57.88;95052.94;4847516;29;20358;-61
2022/08/11 06:00:26;;;;;;;9.93;7.15;;;;;;;20.90;57.76;95052.91;4875365;29;20231;-62
2022/08/11 06:02:55;;;;;;;6.95;6.35;;;;;;;20.98;57.50;95057.16;4903727;29;20237;-62
2022/08/11 06:05:21;;;;;;;7.32;6.57;;;;;;;20.85;58.12;95058.06;4891347;29;20214;-62
2022/08/11 06:07:48;;;;;;;7.43;6.68;;;;;;;20.96;57.92;95053.91;4890785;29;20217;-65
2022/08/11 06:10:28;;;;;;;7.40;6.68;;;;;;;21.23;57.09;95061.75;4969448;28;20228;-63
2022/08/11 06:12:56;;;;;;;7.15;6.50;;;;;;;21.22;56.69;95052.88;4980387;28;20259;-64
2022/08/11 06:15:23;;;;;;;7.70;6.88;;;;;;;21.24;56.80;95055.34;4992248;28;20219;-63
2022/08/11 06:17:50;;;;;;;7.07;6.45;;;;;;;21.13;56.80;95048.84;5001623;28;20226;-64
2022/08/11 06:20:18;;;;;;;8.20;7.30;;;;;;;21.22;56.81;95049.41;5000143;28;20233;-64
2022/08/11 06:22:54;;;;;;;7.65;6.95;;;;;;;21.31;56.32;95042.75;5006828;28;20199;-63
2022/08/11 06:25:20;;;;;;;7.57;7.07;;;;;;;21.42;56.51;95046.59;5007999;28;20226;-63
2022/08/11 06:27:55;;;;;;;9.25;8.35;;;;;;;21.36;56.46;95045.59;4992539;28;20294;-65
2022/08/11 06:30:41;;;;;;;8.50;7.60;;;;;;;21.34;56.62;95045.00;4972244;28;20785;-64
2022/08/11 06:33:13;;;;;;;7.50;6.80;;;;;;;21.58;55.55;95040.72;4973597;28;20314;-64
2022/08/11 06:36:03;;;;;;;9.50;6.72;;;;;;;21.75;54.79;95043.63;4973435;28;20226;-63
2022/08/11 06:38:57;;;;;;;7.10;6.35;;;;;;;21.82;54.06;95047.06;4975437;28;20235;-61
2022/08/11 06:41:37;;;;;;;7.55;5.53;;;;;;;21.80;53.85;95046.47;4969046;28;20216;-62
2022/08/11 06:44:17;;;;;;;6.57;5.32;;;;;;;21.82;52.84;95041.72;5000924;28;20222;-62
2022/08/11 06:46:46;;;;;;;7.53;5.53;;;;;;;21.85;52.61;95045.81;4995925;28;20676;-63
2022/08/11 06:52:08;;;;;;;7.03;5.20;;;;;;;21.89;52.54;95038.97;4997677;28;20641;-63
2022/08/11 06:54:43;;;;;;;7.57;5.47;;;;;;;22.09;52.18;95036.91;4982780;28;20234;-63
2022/08/11 07:03:10;;;;;;;5.78;5.25;;;;;;;22.20;51.19;95040.72;4967729;28;20262;-63
2022/08/11 07:05:44;;;;;;;6.35;4.80;;;;;;;22.33;50.92;95039.75;4963472;28;20329;-64
2022/08/11 07:29:35;;;;;;;5.13;4.28;;;;;;;23.23;46.70;95042.50;4951100;28;20241;-65
2022/08/11 07:32:13;;;;;;;6.28;4.78;;;;;;;23.20;46.58;95039.44;4936017;28;20212;-64
2022/08/11 07:34:46;;;;;;;5.78;4.85;;;;;;;22.99;46.71;95051.50;4994598;28;20235;-63
2022/08/11 07:37:19;;;;;;;4.75;4.35;;;;;;;22.80;46.85;95053.38;4983819;28;20243;-60
2022/08/11 07:39:47;;;;;;;5.85;4.72;;;;;;;22.98;46.82;95052.53;4994013;28;20223;-63
2022/08/11 07:42:15;;;;;;;5.38;4.97;;;;;;;23.15;46.65;95042.81;5002639;28;20242;-64
2022/08/11 07:53:01;;;;;;;4.65;4.35;;;;;;;23.55;45.61;95034.13;5010376;28;20867;-63
2022/08/11 07:55:29;;;;;;;5.40;5.00;;;;;;;23.64;45.06;95038.09;5006743;28;20223;-66
2022/08/11 08:20:12;;;;;;;4.75;4.35;;;;;;;24.07;43.57;95023.53;4986098;28;20273;-64
2022/08/11 08:22:38;;;;;;;4.38;3.95;;;;;;;24.15;44.14;95020.47;4989886;28;20220;-62
2022/08/11 08:25:05;;;;;;;5.10;4.70;;;;;;;24.36;42.86;95023.59;5004855;28;20229;-61
2022/08/11 08:27:31;;;;;;;4.90;4.50;;;;;;;24.40;42.75;95024.72;5003960;28;20234;-62
2022/08/11 08:32:43;;;;;;;5.28;4.43;;;;;;;24.41;42.51;95015.63;4992726;28;20262;-62
2022/08/11 08:35:12;;;;;;;5.10;4.40;;;;;;;24.45;42.75;95014.13;4991132;28;20208;-62
2022/08/11 08:37:38;;;;;;;4.75;4.30;;;;;;;24.52;42.74;95014.81;4999117;28;20243;-62
2022/08/11 08:40:07;;;;;;;4.78;4.38;;;;;;;24.61;42.35;95013.34;4991471;28;20225;-63
2022/08/11 08:42:40;;;;;;;5.35;4.10;;;;;;;24.72;41.89;95016.25;4992090;28;20281;-62
2022/08/11 08:45:13;;;;;;;6.90;4.60;;;;;;;24.73;42.18;95007.13;4993295;28;20231;-65
2022/08/11 08:47:44;;;;;;;4.70;4.38;;;;;;;24.86;41.11;95010.34;4986716;28;20269;-64
2022/08/11 08:50:18;;;;;;;4.47;4.07;;;;;;;25.00;41.17;95001.97;4975706;28;20222;-64
2022/08/11 08:53:04;;;;;;;5.65;4.85;;;;;;;25.19;41.08;95006.09;4983147;28;20220;-63
2022/08/11 08:55:30;;;;;;;4.82;4.40;;;;;;;25.22;40.38;95010.19;4983481;28;20513;-64
2022/08/11 08:57:59;;;;;;;5.10;4.68;;;;;;;25.16;40.92;95008.47;5005899;28;20273;-64
2022/08/11 09:00:36;;;;;;;4.85;4.45;;;;;;;24.96;41.35;95001.63;5000683;28;20272;-63
2022/08/11 09:03:02;;;;;;;4.72;4.43;;;;;;;24.99;41.23;95011.94;4998537;28;20218;-63
2022/08/11 09:05:28;;;;;;;4.63;4.22;;;;;;;24.97;41.06;95011.34;5006401;28;20214;-63
2022/08/11 09:07:56;;;;;;;4.75;4.10;;;;;;;24.60;41.83;95000.16;4986847;28;20211;-63
2022/08/11 09:10:23;;;;;;;5.30;4.90;;;;;;;24.58;42.08;94997.72;4998982;28;20545;-63
2022/08/11 09:12:49;;;;;;;8.10;4.75;;;;;;;24.77;41.39;95002.91;4987320;28;20237;-64
2022/08/11 09:15:17;;;;;;;6.30;4.13;;;;;;;24.62;40.52;94990.81;4979259;28;20250;-61
2022/08/11 09:18:05;;;;;;;4.55;4.15;;;;;;;24.89;39.98;94998.28;4988206;28;20237;-63
2022/08/11 09:20:35;;;;;;;4.75;4.35;;;;;;;25.36;39.18;94995.34;5003950;28;20281;-63
2022/08/11 09:28:45;;;;;;;6.45;4.60;;;;;;;26.22;38.24;94989.59;5005854;28;20288;-63
2022/08/11 09:31:13;;;;;;;5.47;5.07;;;;;;;26.29;38.32;94987.53;5010069;28;20224;-63
2022/08/11 09:33:40;;;;;;;5.82;4.85;;;;;;;26.04;38.79;94984.53;4999203;28;20243;-64
2022/08/11 09:41:38;;;;;;;4.82;4.43;;;;;;;25.93;38.18;94976.31;4985035;28;20258;-62
2022/08/11 09:46:51;;;;;;;3.90;3.42;;;;;;;26.22;35.64;94970.72;4985334;28;20250;-62
2022/08/11 09:49:19;;;;;;;3.97;3.65;;;;;;;26.44;35.69;94969.91;5008896;28;20249;-63
2022/08/11 09:51:46;;;;;;;4.32;4.03;;;;;;;26.45;36.30;94969.66;5007154;28;20223;-62
2022/08/11 09:54:12;;;;;;;4.60;4.20;;;;;;;26.59;36.24;94970.09;4992291;28;20259;-62
2022/08/11 09:59:22;;;;;;;5.15;4.75;;;;;;;27.12;35.48;94970.38;4986620;28;20333;-62
2022/08/11 10:02:00;;;;;;;4.55;4.10;;;;;;;27.29;35.25;94968.38;4985050;28;20195;-62
2022/08/11 10:04:34;;;;;;;4.60;4.30;;;;;;;27.34;34.90;94952.22;4972324;28;20315;-62
2022/08/11 10:07:03;;;;;;;4.50;4.20;;;;;;;27.40;34.97;94958.47;4994416;28;20227;-62
2022/08/11 10:09:35;;;;;;;5.63;4.63;;;;;;;27.35;35.79;94959.25;5001855;28;20231;-62
2022/08/11 10:12:02;;;;;;;4.68;4.38;;;;;;;27.33;35.98;94955.19;4992963;28;20228;-62
2022/08/11 10:17:16;;;;;;;5.05;4.65;;;;;;;26.67;36.93;94956.16;4979361;28;20223;-61
2022/08/11 10:19:45;;;;;;;4.78;4.47;;;;;;;27.01;37.45;94950.56;4979888;28;20207;-60
2022/08/11 10:27:43;;;;;;;4.97;4.55;;;;;;;27.42;35.62;94951.72;4994857;28;20389;-60
2022/08/11 10:35:42;;;;;;;5.30;4.82;;;;;;;27.67;35.84;94953.00;4981956;28;20392;-60
2022/08/11 10:38:09;;;;;;;4.88;4.47;;;;;;;27.70;35.72;94957.88;4990930;28;20318;-60
2022/08/11 10:40:35;;;;;;;4.85;4.47;;;;;;;27.69;35.20;94957.06;4979921;28;20238;-60
2022/08/11 10:43:01;;;;;;;5.80;4.80;;;;;;;27.63;34.86;94958.09;4976831;28;20224;-62
2022/08/11 10:48:14;;;;;;;5.20;4.80;;;;;;;27.42;36.00;94951.72;4997473;28;20229;-61
2022/08/11 10:58:58;;;;;;;4.70;4.30;;;;;;;27.57;33.71;94926.72;4985065;28;20257;-60
2022/08/11 11:01:31;;;;;;;4.60;4.20;;;;;;;27.36;33.83;94924.97;4980675;28;20215;-60
2022/08/11 11:04:14;;;;;;;4.90;4.45;;;;;;;27.46;34.20;94933.16;4982849;28;20224;-59
2022/08/11 11:06:49;;;;;;;4.93;4.60;;;;;;;27.61;34.07;94922.44;5010751;28;20234;-61
2022/08/11 11:09:31;;;;;;;4.45;4.13;;;;;;;27.74;34.18;94926.56;5000444;28;20229;-61
2022/08/11 11:17:55;;;;;;;4.85;4.35;;;;;;;28.21;32.42;94909.50;4990870;28;20401;-61
2022/08/11 11:20:37;;;;;;;4.80;4.40;;;;;;;27.99;33.05;94923.22;4986837;28;20222;-61
2022/08/11 11:23:12;;;;;;;3.92;3.63;;;;;;;27.87;32.79;94925.31;4991970;28;20722;-61
2022/08/11 11:26:05;;;;;;;6.30;5.78;;;;;;;28.12;33.04;94920.03;4989760;28;20241;-61
2022/08/11 11:29:04;;;;;;;3.92;3.63;;;;;;;28.21;32.25;94930.34;4978663;28;20240;-61
2022/08/11 11:31:42;;;;;;;4.07;3.78;;;;;;;28.36;31.73;94927.66;4985899;28;20227;-61
2022/08/11 11:34:16;;;;;;;4.45;4.07;;;;;;;28.56;32.07;94924.25;4986362;28;20730;-60
2022/08/11 11:36:49;;;;;;;4.35;4.05;;;;;;;28.89;31.40;94924.84;4991825;28;20223;-61
2022/08/11 11:39:24;;;;;;;4.20;3.85;;;;;;;28.93;30.75;94920.53;4995377;28;20227;-61
2022/08/11 11:41:53;;;;;;;4.40;4.10;;;;;;;29.22;29.91;94924.34;5004744;28;20223;-61
2022/08/11 11:44:21;;;;;;;4.40;3.97;;;;;;;28.87;31.23;94922.41;4989028;28;20218;-61
2022/08/11 11:46:48;;;;;;;5.53;4.13;;;;;;;28.65;31.80;94927.25;4975763;28;20243;-59
2022/08/11 11:49:17;;;;;;;4.35;3.95;;;;;;;28.70;31.85;94919.94;5018106;28;21407;-61
2022/08/11 11:51:46;;;;;;;4.32;4.03;;;;;;;29.21;32.21;94909.19;4982022;28;20234;-61
2022/08/11 11:54:14;;;;;;;4.28;3.90;;;;;;;29.23;31.24;94908.91;4986259;28;20227;-61
2022/08/11 11:56:42;;;;;;;4.55;4.15;;;;;;;29.09;30.58;94918.69;4990336;28;20231;-58
2022/08/11 12:01:54;;;;;;;4.35;3.90;;;;;;;28.35;34.30;94907.94;4993413;28;20325;-61
2022/08/11 12:04:21;;;;;;;5.13;3.90;;;;;;;29.06;33.37;94911.91;4987342;28;20227;-61
2022/08/11 12:06:46;;;;;;;4.47;4.07;;;;;;;29.82;32.51;94899.38;4987671;28;20232;-60
2022/08/11 12:09:17;;;;;;;4.25;3.95;;;;;;;29.92;30.76;94903.94;4983426;28;20227;-61
2022/08/11 12:14:28;;;;;;;4.78;4.30;;;;;;;28.55;33.31;94893.69;4986352;28;20246;-62
2022/08/11 12:16:56;;;;;;;4.45;4.05;;;;;;;28.65;33.08;94892.06;4983960;28;20204;-62
2022/08/11 12:19:29;;;;;;;5.47;4.97;;;;;;;28.66;33.62;94891.00;4984009;28;20212;-61
2022/08/11 12:28:02;;;;;;;4.40;3.97;;;;;;;28.67;33.33;94895.31;4979285;28;20322;-60
2022/08/11 12:30:28;;;;;;;4.32;3.92;;;;;;;28.69;33.68;94895.88;5000548;28;20310;-62
2022/08/11 12:32:54;;;;;;;5.53;4.93;;;;;;;28.76;33.75;94896.41;5005933;28;20254;-62
2022/08/11 12:35:21;;;;;;;5.00;4.55;;;;;;;28.82;33.63;94902.66;5002421;28;20297;-62
2022/08/11 12:38:00;;;;;;;5.72;4.25;;;;;;;29.01;33.37;94898.34;4981401;28;20255;-62
2022/08/11 12:46:20;;;;;;;4.88;4.15;;;;;;;29.11;33.05;94919.19;5028105;28;20314;-60
2022/08/11 12:51:58;;;;;;;3.40;3.10;;;;;;;30.16;31.53;94904.94;5021600;28;20411;-60
2022/08/11 12:54:32;;;;;;;3.85;3.40;;;;;;;30.78;30.34;94906.25;5024760;28;20241;-61
2022/08/11 13:05:19;;;;;;;4.20;3.70;;;;;;;29.18;33.11;94917.84;5030527;28;20260;-60
2022/08/11 13:07:46;;;;;;;3.38;3.08;;;;;;;29.14;32.79;94910.56;5008768;28;20214;-62
2022/08/11 13:12:46;;;;;;;5.13;3.67;;;;;;;29.65;32.21;94915.94;5023095;28;20226;-62
2022/08/11 13:13:04;;;;;;;3.85;3.17;;;;;;;29.97;31.84;94909.34;5024027;28;20229;-63
2022/08/11 13:15:30;;;;;;;3.90;3.00;;;;;;;29.62;31.34;94917.28;4989230;28;20236;-64
2022/08/11 13:17:57;;;;;;;3.72;3.50;;;;;;;30.00;32.77;94912.31;4981109;28;20224;-63
2022/08/11 13:20:24;;;;;;;4.63;3.25;;;;;;;30.19;31.18;94909.81;4982412;28;20211;-69
2022/08/11 13:22:56;;;;;;;4.43;3.33;;;;;;;30.19;31.89;94904.38;4986795;28;20219;-65
2022/08/11 13:25:25;;;;;;;3.92;3.70;;;;;;;30.50;31.74;94905.09;4993162;28;20235;-63
2022/08/11 13:27:55;;;;;;;5.35;3.55;;;;;;;31.57;29.75;94908.09;4985451;28;20238;-64
2022/08/11 13:33:10;;;;;;;4.35;3.30;;;;;;;32.25;27.46;94901.69;4979917;28;20242;-63
2022/08/11 13:35:36;;;;;;;4.78;4.30;;;;;;;32.63;27.45;94904.47;4981570;28;20223;-63
2022/08/11 13:38:04;;;;;;;3.42;3.15;;;;;;;32.82;26.72;94902.56;5014732;28;20241;-61
2022/08/11 13:40:31;;;;;;;4.28;2.90;;;;;;;32.83;26.49;94900.66;5007727;28;20355;-63
2022/08/11 13:42:59;;;;;;;3.58;2.95;;;;;;;32.75;27.07;94896.69;4990249;28;20226;-62
2022/08/11 13:45:26;;;;;;;3.03;2.65;;;;;;;32.58;25.92;94888.22;5001720;28;20223;-62
2022/08/11 13:47:55;;;;;;;2.90;2.70;;;;;;;32.55;25.11;94899.69;5002952;28;20219;-62
2022/08/11 13:51:29;;;;;;;2.97;2.78;;;;;;;31.11;27.09;94889.47;4993725;28;20209;-62
2022/08/11 13:53:11;;;;;;;3.25;2.92;;;;;;;30.77;27.50;94896.50;4987588;28;20211;-62
2022/08/11 13:55:39;;;;;;;3.55;2.42;;;;;;;31.60;27.68;94886.63;4989486;28;20278;-62
2022/08/11 13:58:05;;;;;;;2.63;2.30;;;;;;;32.27;25.67;94883.16;5003536;28;20218;-61
2022/08/11 14:00:30;;;;;;;3.72;2.50;;;;;;;32.58;25.40;94885.50;4994379;28;20219;-61
2022/08/11 14:02:57;;;;;;;3.22;2.88;;;;;;;32.19;25.09;94878.38;4986101;28;20231;-62
2022/08/11 14:05:35;;;;;;;2.72;2.53;;;;;;;30.07;28.34;94874.88;4984874;28;20223;-61
2022/08/11 14:08:06;;;;;;;3.13;2.58;;;;;;;31.97;26.21;94871.56;4975653;28;20215;-63
2022/08/11 14:10:33;;;;;;;3.30;2.60;;;;;;;38.25;18.48;94883.44;5014560;28;20233;-63
2022/08/11 14:16:03;;;;;;;3.70;3.30;;;;;;;49.19;8.53;94885.13;5005647;28;20226;-63
2022/08/11 14:18:31;;;;;;;3.80;2.55;;;;;;;50.73;7.73;94886.16;5003117;28;20219;-63
2022/08/11 14:23:49;;;;;;;3.17;2.90;;;;;;;51.91;6.36;94895.97;5002059;28;20555;-62
2022/08/11 14:26:25;;;;;;;3.92;3.63;;;;;;;52.62;5.93;94882.06;5006764;28;20218;-64
2022/08/11 14:29:11;;;;;;;3.13;2.72;;;;;;;51.53;6.42;94896.09;4990198;28;20203;-63
2022/08/11 14:31:43;;;;;;;3.67;3.05;;;;;;;53.12;5.74;94886.78;4987977;28;20230;-63
2022/08/11 14:34:11;;;;;;;3.72;3.53;;;;;;;50.94;6.44;94893.53;4991018;28;20339;-61
2022/08/11 14:36:45;;;;;;;4.18;3.83;;;;;;;50.52;6.63;94878.75;4984384;28;20227;-61
2022/08/11 14:39:16;;;;;;;3.42;3.15;;;;;;;48.93;7.70;94886.38;4984332;28;20262;-62
2022/08/11 14:47:17;;;;;;;3.30;3.10;;;;;;;50.19;7.31;94872.63;4999235;28;20214;-62
2022/08/11 14:49:43;;;;;;;3.63;3.40;;;;;;;51.34;6.73;94883.53;4998049;28;20199;-61
2022/08/11 14:52:14;;;;;;;4.20;4.00;;;;;;;53.43;5.14;94886.59;4986466;28;20226;-61
2022/08/11 14:57:27;;;;;;;4.32;3.88;;;;;;;50.49;7.05;94868.38;4997621;28;20292;-61
2022/08/11 14:59:56;;;;;;;4.63;4.25;;;;;;;48.08;8.95;94865.69;4991967;28;20226;-61
2022/08/11 15:05:07;;;;;;;4.75;4.45;;;;;;;50.52;7.05;94862.75;4983756;28;20232;-62
2022/08/11 15:07:33;;;;;;;4.22;3.92;;;;;;;48.08;8.98;94862.09;4979293;28;20227;-62
2022/08/11 15:10:01;;;;;;;5.13;4.75;;;;;;;49.88;7.87;94864.03;4995836;28;20260;-62
2022/08/11 15:12:28;;;;;;;4.18;3.78;;;;;;;42.64;12.77;94853.63;4987084;28;20227;-62
2022/08/11 15:17:39;;;;;;;4.13;3.80;;;;;;;43.85;11.98;94851.75;4996089;28;20235;-61
2022/08/11 15:25:41;;;;;;;3.60;3.30;;;;;;;36.71;19.14;94839.22;4987650;28;20305;-61
2022/08/11 15:39:22;;;;;;;3.00;2.80;;;;;;;32.75;23.70;94833.25;4974392;28;20306;-61
2022/08/11 15:47:56;;;;;;;3.63;3.20;;;;;;;31.73;25.10;94828.03;4978348;28;20231;-60
2022/08/11 15:50:28;;;;;;;3.40;3.20;;;;;;;30.75;26.26;94830.00;4984555;28;20231;-64
2022/08/11 15:53:02;;;;;;;3.30;3.10;;;;;;;31.15;25.94;94823.44;4974074;28;20207;-62
2022/08/11 15:55:29;;;;;;;3.40;3.10;;;;;;;31.69;25.24;94829.72;4994939;28;20227;-61
2022/08/11 16:06:19;;;;;;;2.92;2.70;;;;;;;30.95;26.15;94834.47;4973548;28;20234;-62
2022/08/11 16:08:47;;;;;;;3.15;2.95;;;;;;;30.48;27.19;94835.91;4972339;28;20366;-61
2022/08/11 16:11:13;;;;;;;4.07;3.30;;;;;;;30.26;27.42;94845.25;4980276;28;20204;-62
2022/08/11 16:16:15;;;;;;;4.20;3.83;;;;;;;30.14;27.59;94833.09;4975758;28;20594;-60
2022/08/11 16:18:46;;;;;;;5.65;4.10;;;;;;;29.93;27.99;94835.09;5008961;28;20226;-62
2022/08/11 16:21:22;;;;;;;4.00;3.70;;;;;;;29.72;28.54;94835.16;5000297;28;20258;-62
2022/08/11 16:23:49;;;;;;;4.43;3.17;;;;;;;29.64;28.74;94838.44;5014422;28;20229;-61
2022/08/11 16:26:18;;;;;;;4.43;3.50;;;;;;;29.65;28.66;94840.88;5001803;28;20214;-62
2022/08/11 16:28:45;;;;;;;4.47;3.60;;;;;;;29.59;29.07;94841.97;5000132;28;20257;-62
2022/08/11 16:31:12;;;;;;;4.70;4.10;;;;;;;29.51;29.08;94842.53;4989280;28;20247;-60
2022/08/11 16:33:40;;;;;;;4.82;4.43;;;;;;;29.45;29.39;94843.59;4985074;28;20235;-62
2022/08/11 16:38:58;;;;;;;4.03;3.45;;;;;;;29.15;29.64;94844.47;4990051;28;20250;-63
2022/08/11 16:47:00;;;;;;;4.38;3.83;;;;;;;28.72;30.43;94854.75;4975087;28;20215;-62
2022/08/11 16:49:28;;;;;;;3.53;3.20;;;;;;;28.70;30.32;94865.81;4986853;28;20227;-62
2022/08/11 16:51:53;;;;;;;3.40;3.13;;;;;;;28.68;29.95;94862.59;4986496;28;20231;-61
2022/08/11 16:54:19;;;;;;;4.25;3.95;;;;;;;28.34;30.90;94863.03;4987548;28;20763;-62
2022/08/11 16:56:52;;;;;;;3.70;3.40;;;;;;;28.39;30.79;94862.25;4987093;28;20255;-61
2022/08/11 16:59:34;;;;;;;4.63;3.40;;;;;;;28.45;30.93;94863.91;4986103;28;20290;-62
2022/08/11 17:13:34;;;;;;;3.63;3.22;;;;;;;27.52;32.46;94875.38;4974763;28;20223;-61
2022/08/11 17:16:06;;;;;;;4.95;3.85;;;;;;;27.57;32.35;94875.41;4999143;28;20242;-61
2022/08/11 17:18:49;;;;;;;4.85;4.45;;;;;;;27.60;32.67;94885.69;5019463;28;20230;-61
2022/08/11 17:21:25;;;;;;;5.63;4.72;;;;;;;27.73;32.31;94892.53;4993284;28;20227;-62